^^
Station Historical Data
 
Daily Summary for March 21, 2019 Units:  Both    English   Metric
« Previous Day
Next Day »
Daily Weekly Monthly Yearly Custom
  Current: High: Low: Average:
Temperature: 84.0 °F /  28.9 °C TemperatureF °F /  -17.8 °C 64.6 °F /  18.1 °C 81.8 °F /  27.7 °C
Dew Point: 29.7 °F /  -1.3 °C DewpointF °F /  -17.8 °C 29.7 °F /  -1.3 °C 32.7 °F /  0.4 °C
Humidity: 14% Humidity% 10% 18%
Wind Speed: 4.9mph /  7.9km/h WindSpeedMPHmph /  0km/h - 1.6mph /  2.6km/h
Wind Gust: 5.0mph /  8km/h WindSpeedGustMPHmph /  0km/h - -
WindSSW - - South
Pressure: 29.64 in /  1003.6 hPa PressureIn in /  0 hPa 29.59 in /  1001.9 hPa -
Precipitation: 0.00 in /  0 mm      
Historical Graphs
 
 
Tabular Data for March 21, 2019
Time Temperature Dew Point Pressure Wind Wind Speed Wind Gust Humidity Rainfall Rate (Hourly) solar Conditions
TemperatureF °F /  -17.8 °C DewpointF °F /  -17.8 °C PressureInin /  0hPa Calm     Humidity% HourlyPrecipInin /  0mm SolarRadiationWatts/m^2 W/m2 Conditions
00:04 74.1 °F /  23.4 °C 32.9 °F /  0.5 °C 29.70in /  1005.6hPa SSW 2.9mph /  4.7km/h 6.0mph /  9.7km/h 22% 0.00in /  0mm 0.00 W/m2
00:09 74.3 °F /  23.5 °C 33.1 °F /  0.6 °C 29.70in /  1005.6hPa SSW 2.9mph /  4.7km/h 3.0mph /  4.8km/h 22% 0.00in /  0mm 0.00 W/m2
00:14 74.3 °F /  23.5 °C 33.1 °F /  0.6 °C 29.70in /  1005.6hPa SSW 6.0mph /  9.7km/h 6.0mph /  9.7km/h 22% 0.00in /  0mm 0.00 W/m2
00:19 74.3 °F /  23.5 °C 33.1 °F /  0.6 °C 29.70in /  1005.6hPa Calm   2.0mph /  3.2km/h 22% 0.00in /  0mm 0.00 W/m2
00:24 74.3 °F /  23.5 °C 33.1 °F /  0.6 °C 29.70in /  1005.6hPa SSW 2.9mph /  4.7km/h 5.0mph /  8km/h 22% 0.00in /  0mm 0.00 W/m2
00:29 74.1 °F /  23.4 °C 32.9 °F /  0.5 °C 29.70in /  1005.6hPa SSE 0.9mph /  1.4km/h 5.0mph /  8km/h 22% 0.00in /  0mm 0.00 W/m2
00:34 74.1 °F /  23.4 °C 32.9 °F /  0.5 °C 29.70in /  1005.6hPa Calm   4.0mph /  6.4km/h 22% 0.00in /  0mm 0.00 W/m2
00:39 74.1 °F /  23.4 °C 32.9 °F /  0.5 °C 29.70in /  1005.6hPa South 2.0mph /  3.2km/h 5.0mph /  8km/h 22% 0.00in /  0mm 0.00 W/m2
00:44 74.1 °F /  23.4 °C 32.9 °F /  0.5 °C 29.70in /  1005.6hPa Calm   3.0mph /  4.8km/h 22% 0.00in /  0mm 0.00 W/m2
00:48 74.1 °F /  23.4 °C 32.9 °F /  0.5 °C 29.70in /  1005.6hPa Calm   3.0mph /  4.8km/h 22% 0.00in /  0mm 0.00 W/m2
00:54 73.9 °F /  23.3 °C 32.7 °F /  0.4 °C 29.70in /  1005.6hPa SW 0.9mph /  1.4km/h 2.0mph /  3.2km/h 22% 0.00in /  0mm 0.00 W/m2
00:59 73.8 °F /  23.2 °C 32.5 °F /  0.3 °C 29.70in /  1005.6hPa Calm   2.0mph /  3.2km/h 22% 0.00in /  0mm 0.00 W/m2
01:04 73.8 °F /  23.2 °C 32.5 °F /  0.3 °C 29.70in /  1005.6hPa Calm   4.0mph /  6.4km/h 22% 0.00in /  0mm 0.00 W/m2
01:09 73.8 °F /  23.2 °C 32.5 °F /  0.3 °C 29.70in /  1005.6hPa Calm   3.0mph /  4.8km/h 22% 0.00in /  0mm 0.00 W/m2
01:14 73.6 °F /  23.1 °C 32.4 °F /  0.2 °C 29.70in /  1005.6hPa Calm   5.0mph /  8km/h 22% 0.00in /  0mm 0.00 W/m2
01:19 73.6 °F /  23.1 °C 32.4 °F /  0.2 °C 29.70in /  1005.6hPa SSW 2.9mph /  4.7km/h 5.0mph /  8km/h 22% 0.00in /  0mm 0.00 W/m2
01:24 73.2 °F /  22.9 °C 32.2 °F /  0.1 °C 29.70in /  1005.6hPa Calm   2.0mph /  3.2km/h 22% 0.00in /  0mm 0.00 W/m2
01:29 73.2 °F /  22.9 °C 32.2 °F /  0.1 °C 29.70in /  1005.6hPa Calm   4.0mph /  6.4km/h 22% 0.00in /  0mm 0.00 W/m2
01:34 72.9 °F /  22.7 °C 31.8 °F /  -0.1 °C 29.70in /  1005.6hPa South 0.9mph /  1.4km/h 5.0mph /  8km/h 22% 0.00in /  0mm 0.00 W/m2
01:38 72.9 °F /  22.7 °C 31.8 °F /  -0.1 °C 29.69in /  1005.3hPa SSW 2.9mph /  4.7km/h 5.0mph /  8km/h 22% 0.00in /  0mm 0.00 W/m2
01:44 72.9 °F /  22.7 °C 31.8 °F /  -0.1 °C 29.69in /  1005.3hPa South 0.9mph /  1.4km/h 3.0mph /  4.8km/h 22% 0.00in /  0mm 0.00 W/m2
01:49 72.7 °F /  22.6 °C 31.6 °F /  -0.2 °C 29.69in /  1005.3hPa Calm   2.0mph /  3.2km/h 22% 0.00in /  0mm 0.00 W/m2
01:54 72.7 °F /  22.6 °C 31.6 °F /  -0.2 °C 29.69in /  1005.3hPa SSW 0.9mph /  1.4km/h 4.0mph /  6.4km/h 22% 0.00in /  0mm 0.00 W/m2
01:59 72.7 °F /  22.6 °C 31.6 °F /  -0.2 °C 29.69in /  1005.3hPa Calm   2.0mph /  3.2km/h 22% 0.00in /  0mm 0.00 W/m2
02:04 72.7 °F /  22.6 °C 31.6 °F /  -0.2 °C 29.69in /  1005.3hPa SSW 2.0mph /  3.2km/h 3.0mph /  4.8km/h 22% 0.00in /  0mm 0.00 W/m2
02:09 72.5 °F /  22.5 °C 31.5 °F /  -0.3 °C 29.68in /  1005hPa SSW 0.9mph /  1.4km/h 4.0mph /  6.4km/h 22% 0.00in /  0mm 0.00 W/m2
02:14 72.3 °F /  22.4 °C 31.3 °F /  -0.4 °C 29.68in /  1005hPa Calm   1.0mph /  1.6km/h 22% 0.00in /  0mm 0.00 W/m2
02:19 72.3 °F /  22.4 °C 31.3 °F /  -0.4 °C 29.68in /  1005hPa Calm     22% 0.00in /  0mm 0.00 W/m2
02:24 72.1 °F /  22.3 °C 32.4 °F /  0.2 °C 29.68in /  1005hPa Calm     23% 0.00in /  0mm 0.00 W/m2
02:28 72.0 °F /  22.2 °C 32.2 °F /  0.1 °C 29.68in /  1005hPa Calm     23% 0.00in /  0mm 0.00 W/m2
02:34 71.4 °F /  21.9 °C 31.6 °F /  -0.2 °C 29.68in /  1005hPa Calm   1.0mph /  1.6km/h 23% 0.00in /  0mm 0.00 W/m2
02:39 71.2 °F /  21.8 °C 32.5 °F /  0.3 °C 29.68in /  1005hPa Calm   1.0mph /  1.6km/h 24% 0.00in /  0mm 0.00 W/m2
02:44 70.9 °F /  21.6 °C 32.4 °F /  0.2 °C 29.67in /  1004.6hPa Calm     24% 0.00in /  0mm 0.00 W/m2
02:49 70.5 °F /  21.4 °C 32.0 °F /  0 °C 29.67in /  1004.6hPa Calm   1.0mph /  1.6km/h 24% 0.00in /  0mm 0.00 W/m2
02:54 70.2 °F /  21.2 °C 32.7 °F /  0.4 °C 29.67in /  1004.6hPa Calm   1.0mph /  1.6km/h 25% 0.00in /  0mm 0.00 W/m2
02:59 70.0 °F /  21.1 °C 32.5 °F /  0.3 °C 29.67in /  1004.6hPa Calm     25% 0.00in /  0mm 0.00 W/m2
03:04 69.8 °F /  21 °C 33.4 °F /  0.8 °C 29.67in /  1004.6hPa SSW 2.9mph /  4.7km/h 3.0mph /  4.8km/h 26% 0.00in /  0mm 0.00 W/m2
03:09 69.6 °F /  20.9 °C 33.3 °F /  0.7 °C 29.67in /  1004.6hPa Calm   2.0mph /  3.2km/h 26% 0.00in /  0mm 0.00 W/m2
03:13 70.0 °F /  21.1 °C 33.4 °F /  0.8 °C 29.67in /  1004.6hPa Calm   2.0mph /  3.2km/h 26% 0.00in /  0mm 0.00 W/m2
03:19 70.0 °F /  21.1 °C 33.4 °F /  0.8 °C 29.67in /  1004.6hPa Calm     26% 0.00in /  0mm 0.00 W/m2
03:24 70.0 °F /  21.1 °C 33.4 °F /  0.8 °C 29.67in /  1004.6hPa Calm     26% 0.00in /  0mm 0.00 W/m2
03:29 69.8 °F /  21 °C 33.4 °F /  0.8 °C 29.67in /  1004.6hPa Calm     26% 0.00in /  0mm 0.00 W/m2
03:34 69.4 °F /  20.8 °C 34.0 °F /  1.1 °C 29.67in /  1004.6hPa Calm     27% 0.00in /  0mm 0.00 W/m2
03:39 69.3 °F /  20.7 °C 33.8 °F /  1 °C 29.67in /  1004.6hPa Calm     27% 0.00in /  0mm 0.00 W/m2
03:44 68.9 °F /  20.5 °C 33.6 °F /  0.9 °C 29.67in /  1004.6hPa Calm   1.0mph /  1.6km/h 27% 0.00in /  0mm 0.00 W/m2
03:49 68.5 °F /  20.3 °C 34.2 °F /  1.2 °C 29.67in /  1004.6hPa Calm     28% 0.00in /  0mm 0.00 W/m2
03:54 68.4 °F /  20.2 °C 34.0 °F /  1.1 °C 29.67in /  1004.6hPa Calm     28% 0.00in /  0mm 0.00 W/m2
03:59 68.2 °F /  20.1 °C 33.8 °F /  1 °C 29.67in /  1004.6hPa Calm     28% 0.00in /  0mm 0.00 W/m2
04:04 68.0 °F /  20 °C 32.7 °F /  0.4 °C 29.67in /  1004.6hPa Calm   2.0mph /  3.2km/h 27% 0.00in /  0mm 0.00 W/m2
04:09 68.0 °F /  20 °C 32.7 °F /  0.4 °C 29.67in /  1004.6hPa Calm   2.0mph /  3.2km/h 27% 0.00in /  0mm 0.00 W/m2
04:14 68.4 °F /  20.2 °C 32.2 °F /  0.1 °C 29.67in /  1004.6hPa Calm   3.0mph /  4.8km/h 26% 0.00in /  0mm 0.00 W/m2
04:19 68.9 °F /  20.5 °C 32.5 °F /  0.3 °C 29.67in /  1004.6hPa SSW 2.0mph /  3.2km/h 3.0mph /  4.8km/h 26% 0.00in /  0mm 0.00 W/m2
04:24 69.6 °F /  20.9 °C 33.3 °F /  0.7 °C 29.67in /  1004.6hPa Calm   4.0mph /  6.4km/h 26% 0.00in /  0mm 0.00 W/m2
04:29 70.2 °F /  21.2 °C 33.6 °F /  0.9 °C 29.67in /  1004.6hPa Calm   5.0mph /  8km/h 26% 0.00in /  0mm 0.00 W/m2
04:33 70.5 °F /  21.4 °C 33.1 °F /  0.6 °C 29.67in /  1004.6hPa South 4.0mph /  6.4km/h 8.0mph /  12.9km/h 25% 0.00in /  0mm 0.00 W/m2
04:39 71.2 °F /  21.8 °C 34.5 °F /  1.4 °C 29.67in /  1004.6hPa Calm   6.0mph /  9.7km/h 26% 0.00in /  0mm 0.00 W/m2
04:44 71.8 °F /  22.1 °C 35.1 °F /  1.7 °C 29.67in /  1004.6hPa SE 0.9mph /  1.4km/h 7.0mph /  11.3km/h 26% 0.00in /  0mm 0.00 W/m2
04:49 72.1 °F /  22.3 °C 35.4 °F /  1.9 °C 29.67in /  1004.6hPa Calm   8.0mph /  12.9km/h 26% 0.00in /  0mm 0.00 W/m2
04:54 72.3 °F /  22.4 °C 34.5 °F /  1.4 °C 29.67in /  1004.6hPa SSE 4.0mph /  6.4km/h 4.0mph /  6.4km/h 25% 0.00in /  0mm 0.00 W/m2
04:59 72.3 °F /  22.4 °C 34.5 °F /  1.4 °C 29.67in /  1004.6hPa SE 4.0mph /  6.4km/h 7.0mph /  11.3km/h 25% 0.00in /  0mm 0.00 W/m2
05:04 72.7 °F /  22.6 °C 34.9 °F /  1.6 °C 29.67in /  1004.6hPa Calm   5.0mph /  8km/h 25% 0.00in /  0mm 0.00 W/m2
05:09 72.5 °F /  22.5 °C 34.7 °F /  1.5 °C 29.67in /  1004.6hPa SSE 0.9mph /  1.4km/h 6.0mph /  9.7km/h 25% 0.00in /  0mm 0.00 W/m2
05:13 72.3 °F /  22.4 °C 34.5 °F /  1.4 °C 29.67in /  1004.6hPa Calm     25% 0.00in /  0mm 0.00 W/m2
05:19 72.1 °F /  22.3 °C 34.3 °F /  1.3 °C 29.68in /  1005hPa SE 2.0mph /  3.2km/h 2.0mph /  3.2km/h 25% 0.00in /  0mm 0.00 W/m2
05:24 72.0 °F /  22.2 °C 34.2 °F /  1.2 °C 29.67in /  1004.6hPa Calm   3.0mph /  4.8km/h 25% 0.00in /  0mm 0.00 W/m2
05:29 71.6 °F /  22 °C 34.0 °F /  1.1 °C 29.67in /  1004.6hPa Calm   3.0mph /  4.8km/h 25% 0.00in /  0mm 0.00 W/m2
05:34 71.2 °F /  21.8 °C 33.6 °F /  0.9 °C 29.67in /  1004.6hPa Calm     25% 0.00in /  0mm 0.00 W/m2
05:39 71.1 °F /  21.7 °C 33.4 °F /  0.8 °C 29.68in /  1005hPa Calm     25% 0.00in /  0mm 0.00 W/m2
05:44 70.5 °F /  21.4 °C 34.0 °F /  1.1 °C 29.68in /  1005hPa Calm     26% 0.00in /  0mm 0.00 W/m2
05:49 70.2 °F /  21.2 °C 33.6 °F /  0.9 °C 29.68in /  1005hPa Calm     26% 0.00in /  0mm 0.00 W/m2
05:54 69.6 °F /  20.9 °C 34.2 °F /  1.2 °C 29.68in /  1005hPa Calm     27% 0.00in /  0mm 0.00 W/m2
05:58 69.3 °F /  20.7 °C 33.8 °F /  1 °C 29.68in /  1005hPa Calm     27% 0.00in /  0mm 0.00 W/m2
06:04 68.9 °F /  20.5 °C 33.6 °F /  0.9 °C 29.68in /  1005hPa Calm     27% 0.00in /  0mm 0.00 W/m2
06:09 68.4 °F /  20.2 °C 33.1 °F /  0.6 °C 29.68in /  1005hPa Calm     27% 0.00in /  0mm 0.00 W/m2
06:14 68.0 °F /  20 °C 32.7 °F /  0.4 °C 29.68in /  1005hPa Calm     27% 0.00in /  0mm 0.00 W/m2
06:19 67.6 °F /  19.8 °C 32.5 °F /  0.3 °C 29.68in /  1005hPa Calm     27% 0.00in /  0mm 0.00 W/m2
06:24 67.3 °F /  19.6 °C 32.2 °F /  0.1 °C 29.69in /  1005.3hPa Calm     27% 0.00in /  0mm 0.00 W/m2
06:29 66.9 °F /  19.4 °C 32.7 °F /  0.4 °C 29.69in /  1005.3hPa Calm     28% 0.00in /  0mm 0.00 W/m2
06:34 66.6 °F /  19.2 °C 32.4 °F /  0.2 °C 29.69in /  1005.3hPa Calm   1.0mph /  1.6km/h 28% 0.00in /  0mm 0.00 W/m2
06:39 66.4 °F /  19.1 °C 33.1 °F /  0.6 °C 29.69in /  1005.3hPa Calm     29% 0.00in /  0mm 0.00 W/m2
06:44 66.0 °F /  18.9 °C 31.1 °F /  -0.5 °C 29.69in /  1005.3hPa Calm     27% 0.00in /  0mm 0.00 W/m2
06:49 65.8 °F /  18.8 °C 30.9 °F /  -0.6 °C 29.70in /  1005.6hPa Calm     27% 0.00in /  0mm 0.00 W/m2
06:54 65.7 °F /  18.7 °C 30.7 °F /  -0.7 °C 29.70in /  1005.6hPa Calm   1.0mph /  1.6km/h 27% 0.00in /  0mm 0.00 W/m2
06:59 65.5 °F /  18.6 °C 30.6 °F /  -0.8 °C 29.70in /  1005.6hPa Calm   1.0mph /  1.6km/h 27% 0.00in /  0mm 5.00 W/m2
07:04 65.1 °F /  18.4 °C 30.4 °F /  -0.9 °C 29.70in /  1005.6hPa Calm     27% 0.00in /  0mm 7.00 W/m2
07:09 65.1 °F /  18.4 °C 30.4 °F /  -0.9 °C 29.70in /  1005.6hPa Calm     27% 0.00in /  0mm 11.00 W/m2
07:14 64.9 °F /  18.3 °C 30.2 °F /  -1 °C 29.70in /  1005.6hPa Calm     27% 0.00in /  0mm 12.00 W/m2
07:19 64.8 °F /  18.2 °C 30.0 °F /  -1.1 °C 29.71in /  1006hPa Calm     27% 0.00in /  0mm 14.00 W/m2
07:24 64.8 °F /  18.2 °C 30.0 °F /  -1.1 °C 29.71in /  1006hPa Calm     27% 0.00in /  0mm 16.00 W/m2
07:29 64.6 °F /  18.1 °C 32.4 °F /  0.2 °C 29.71in /  1006hPa Calm     30% 0.00in /  0mm 19.00 W/m2
07:34 64.6 °F /  18.1 °C 32.4 °F /  0.2 °C 29.71in /  1006hPa SSE 0.9mph /  1.4km/h 1.0mph /  1.6km/h 30% 0.00in /  0mm 21.00 W/m2
07:39 64.8 °F /  18.2 °C 32.5 °F /  0.3 °C 29.71in /  1006hPa Calm     30% 0.00in /  0mm 21.00 W/m2
07:43 64.9 °F /  18.3 °C 33.6 °F /  0.9 °C 29.71in /  1006hPa Calm     31% 0.00in /  0mm 23.00 W/m2
07:49 65.1 °F /  18.4 °C 32.0 °F /  0 °C 29.71in /  1006hPa Calm     29% 0.00in /  0mm 25.00 W/m2
07:54 65.5 °F /  18.6 °C 33.3 °F /  0.7 °C 29.71in /  1006hPa Calm   2.0mph /  3.2km/h 30% 0.00in /  0mm 26.00 W/m2
07:59 65.8 °F /  18.8 °C 32.7 °F /  0.4 °C 29.71in /  1006hPa Calm     29% 0.00in /  0mm 37.00 W/m2
08:04 66.4 °F /  19.1 °C 33.1 °F /  0.6 °C 29.72in /  1006.3hPa Calm   1.0mph /  1.6km/h 29% 0.00in /  0mm 33.00 W/m2
08:09 66.7 °F /  19.3 °C 33.4 °F /  0.8 °C 29.72in /  1006.3hPa Calm   1.0mph /  1.6km/h 29% 0.00in /  0mm 30.00 W/m2
08:14 67.3 °F /  19.6 °C 34.0 °F /  1.1 °C 29.72in /  1006.3hPa SE 0.9mph /  1.4km/h 2.0mph /  3.2km/h 29% 0.00in /  0mm 32.00 W/m2
08:19 67.8 °F /  19.9 °C 32.5 °F /  0.3 °C 29.72in /  1006.3hPa SE 2.0mph /  3.2km/h 2.0mph /  3.2km/h 27% 0.00in /  0mm 35.00 W/m2
08:23 68.5 °F /  20.3 °C 32.4 °F /  0.2 °C 29.72in /  1006.3hPa Calm   2.0mph /  3.2km/h 26% 0.00in /  0mm 76.00 W/m2
08:29 70.0 °F /  21.1 °C 32.5 °F /  0.3 °C 29.73in /  1006.7hPa ENE 0.9mph /  1.4km/h 4.0mph /  6.4km/h 25% 0.00in /  0mm 33.00 W/m2
08:33 71.1 °F /  21.7 °C 31.5 °F /  -0.3 °C 29.73in /  1006.7hPa NE 4.0mph /  6.4km/h 9.0mph /  14.5km/h 23% 0.00in /  0mm 33.00 W/m2
08:39 72.9 °F /  22.7 °C 31.8 °F /  -0.1 °C 29.73in /  1006.7hPa NNE 4.0mph /  6.4km/h 5.0mph /  8km/h 22% 0.00in /  0mm 62.00 W/m2
08:44 74.3 °F /  23.5 °C 30.6 °F /  -0.8 °C 29.73in /  1006.7hPa NE 6.0mph /  9.7km/h 6.0mph /  9.7km/h 20% 0.00in /  0mm 35.00 W/m2
08:49 75.6 °F /  24.2 °C 31.6 °F /  -0.2 °C 29.73in /  1006.7hPa NE 0.9mph /  1.4km/h 6.0mph /  9.7km/h 20% 0.00in /  0mm 35.00 W/m2
08:54 76.3 °F /  24.6 °C 32.2 °F /  0.1 °C 29.73in /  1006.7hPa NE 4.9mph /  7.9km/h 7.0mph /  11.3km/h 20% 0.00in /  0mm 39.00 W/m2
08:59 76.8 °F /  24.9 °C 32.7 °F /  0.4 °C 29.73in /  1006.7hPa NNE 2.0mph /  3.2km/h 3.0mph /  4.8km/h 20% 0.00in /  0mm 37.00 W/m2
09:04 77.4 °F /  25.2 °C 31.8 °F /  -0.1 °C 29.73in /  1006.7hPa NNE 0.9mph /  1.4km/h 3.0mph /  4.8km/h 19% 0.00in /  0mm 39.00 W/m2
09:09 78.3 °F /  25.7 °C 31.3 °F /  -0.4 °C 29.73in /  1006.7hPa North 2.0mph /  3.2km/h 4.0mph /  6.4km/h 18% 0.00in /  0mm 39.00 W/m2
09:14 79.0 °F /  26.1 °C 30.4 °F /  -0.9 °C 29.73in /  1006.7hPa Calm   4.0mph /  6.4km/h 17% 0.00in /  0mm 40.00 W/m2
09:19 79.3 °F /  26.3 °C 30.7 °F /  -0.7 °C 29.73in /  1006.7hPa Calm   4.0mph /  6.4km/h 17% 0.00in /  0mm 40.00 W/m2
09:24 80.1 °F /  26.7 °C 29.8 °F /  -1.2 °C 29.73in /  1006.7hPa Calm   4.0mph /  6.4km/h 16% 0.00in /  0mm 42.00 W/m2
09:29 80.6 °F /  27 °C 30.2 °F /  -1 °C 29.73in /  1006.7hPa Calm   2.0mph /  3.2km/h 16% 0.00in /  0mm 42.00 W/m2
09:34 81.1 °F /  27.3 °C 30.7 °F /  -0.7 °C 29.73in /  1006.7hPa Calm   2.0mph /  3.2km/h 16% 0.00in /  0mm 44.00 W/m2
09:39 81.7 °F /  27.6 °C 31.1 °F /  -0.5 °C 29.74in /  1007hPa Calm   4.0mph /  6.4km/h 16% 0.00in /  0mm 44.00 W/m2
09:44 82.2 °F /  27.9 °C 31.6 °F /  -0.2 °C 29.74in /  1007hPa ENE 0.9mph /  1.4km/h 7.0mph /  11.3km/h 16% 0.00in /  0mm 46.00 W/m2
09:49 82.9 °F /  28.3 °C 30.6 °F /  -0.8 °C 29.74in /  1007hPa NE 6.0mph /  9.7km/h 6.0mph /  9.7km/h 15% 0.00in /  0mm 49.00 W/m2
09:54 83.1 °F /  28.4 °C 30.7 °F /  -0.7 °C 29.74in /  1007hPa SE 0.9mph /  1.4km/h 5.0mph /  8km/h 15% 0.00in /  0mm 97.00 W/m2
09:59 83.7 °F /  28.7 °C 32.7 °F /  0.4 °C 29.74in /  1007hPa NE 2.0mph /  3.2km/h 6.0mph /  9.7km/h 16% 0.00in /  0mm 670.00 W/m2
10:04 84.6 °F /  29.2 °C 31.8 °F /  -0.1 °C 29.74in /  1007hPa ENE 4.9mph /  7.9km/h 7.0mph /  11.3km/h 15% 0.00in /  0mm 684.00 W/m2
10:08 85.3 °F /  29.6 °C 30.7 °F /  -0.7 °C 29.74in /  1007hPa North 4.0mph /  6.4km/h 8.0mph /  12.9km/h 14% 0.00in /  0mm 694.00 W/m2
10:14 85.8 °F /  29.9 °C 32.9 °F /  0.5 °C 29.74in /  1007hPa Calm   1.0mph /  1.6km/h 15% 0.00in /  0mm 708.00 W/m2
10:19 86.4 °F /  30.2 °C 33.3 °F /  0.7 °C 29.74in /  1007hPa SE 4.0mph /  6.4km/h 7.0mph /  11.3km/h 15% 0.00in /  0mm 728.00 W/m2
10:24 86.7 °F /  30.4 °C 33.6 °F /  0.9 °C 29.74in /  1007hPa SE 2.9mph /  4.7km/h 6.0mph /  9.7km/h 15% 0.00in /  0mm 742.00 W/m2
10:29 87.4 °F /  30.8 °C 32.4 °F /  0.2 °C 29.74in /  1007hPa Calm   6.0mph /  9.7km/h 14% 0.00in /  0mm 758.00 W/m2
10:34 87.8 °F /  31 °C 32.7 °F /  0.4 °C 29.74in /  1007hPa NNE 2.0mph /  3.2km/h 5.0mph /  8km/h 14% 0.00in /  0mm 770.00 W/m2
10:39 88.3 °F /  31.3 °C 33.1 °F /  0.6 °C 29.74in /  1007hPa NNW 2.9mph /  4.7km/h 4.0mph /  6.4km/h 14% 0.00in /  0mm 780.00 W/m2
10:44 88.9 °F /  31.6 °C 35.2 °F /  1.8 °C 29.74in /  1007hPa North 4.0mph /  6.4km/h 6.0mph /  9.7km/h 15% 0.00in /  0mm 795.00 W/m2
10:49 89.2 °F /  31.8 °C 33.8 °F /  1 °C 29.74in /  1007hPa NNW 4.9mph /  7.9km/h 5.0mph /  8km/h 14% 0.00in /  0mm 809.00 W/m2
10:54 89.6 °F /  32 °C 34.2 °F /  1.2 °C 29.74in /  1007hPa Calm   4.0mph /  6.4km/h 14% 0.00in /  0mm 821.00 W/m2
10:58 89.8 °F /  32.1 °C 34.2 °F /  1.2 °C 29.73in /  1006.7hPa ESE 2.9mph /  4.7km/h 5.0mph /  8km/h 14% 0.00in /  0mm 830.00 W/m2
11:04 89.8 °F /  32.1 °C 34.2 °F /  1.2 °C 29.73in /  1006.7hPa Calm   4.0mph /  6.4km/h 14% 0.00in /  0mm 840.00 W/m2
11:09 89.8 °F /  32.1 °C 34.2 °F /  1.2 °C 29.73in /  1006.7hPa Calm   4.0mph /  6.4km/h 14% 0.00in /  0mm 853.00 W/m2
11:14 90.1 °F /  32.3 °C 34.5 °F /  1.4 °C 29.73in /  1006.7hPa NE 4.0mph /  6.4km/h 5.0mph /  8km/h 14% 0.00in /  0mm 863.00 W/m2
11:19 90.3 °F /  32.4 °C 32.9 °F /  0.5 °C 29.73in /  1006.7hPa North 8.1mph /  13km/h 8.0mph /  12.9km/h 13% 0.00in /  0mm 870.00 W/m2
11:24 90.7 °F /  32.6 °C 33.1 °F /  0.6 °C 29.72in /  1006.3hPa Calm   4.0mph /  6.4km/h 13% 0.00in /  0mm 881.00 W/m2
11:29 91.0 °F /  32.8 °C 33.4 °F /  0.8 °C 29.72in /  1006.3hPa ESE 2.0mph /  3.2km/h 6.0mph /  9.7km/h 13% 0.00in /  0mm 889.00 W/m2
11:34 91.6 °F /  33.1 °C 33.8 °F /  1 °C 29.72in /  1006.3hPa NE 0.9mph /  1.4km/h 10.0mph /  16.1km/h 13% 0.00in /  0mm 904.00 W/m2
11:39 91.8 °F /  33.2 °C 34.0 °F /  1.1 °C 29.72in /  1006.3hPa NNW 2.0mph /  3.2km/h 5.0mph /  8km/h 13% 0.00in /  0mm 907.00 W/m2
11:43 91.9 °F /  33.3 °C 34.2 °F /  1.2 °C 29.72in /  1006.3hPa East 0.9mph /  1.4km/h 2.0mph /  3.2km/h 13% 0.00in /  0mm 914.00 W/m2
11:49 92.3 °F /  33.5 °C 34.3 °F /  1.3 °C 29.71in /  1006hPa ENE 8.1mph /  13km/h 9.0mph /  14.5km/h 13% 0.00in /  0mm 923.00 W/m2
11:54 92.5 °F /  33.6 °C 34.5 °F /  1.4 °C 29.71in /  1006hPa North 6.9mph /  11.1km/h 11.0mph /  17.7km/h 13% 0.00in /  0mm 928.00 W/m2
11:59 92.7 °F /  33.7 °C 34.7 °F /  1.5 °C 29.71in /  1006hPa NNW 2.9mph /  4.7km/h 7.0mph /  11.3km/h 13% 0.00in /  0mm 933.00 W/m2
12:04 92.7 °F /  33.7 °C 34.7 °F /  1.5 °C 29.71in /  1006hPa East 2.9mph /  4.7km/h 3.0mph /  4.8km/h 13% 0.00in /  0mm 940.00 W/m2
12:09 92.7 °F /  33.7 °C 34.7 °F /  1.5 °C 29.71in /  1006hPa ESE 2.0mph /  3.2km/h 8.0mph /  12.9km/h 13% 0.00in /  0mm 947.00 W/m2
12:14 92.7 °F /  33.7 °C 34.7 °F /  1.5 °C 29.71in /  1006hPa NE 2.0mph /  3.2km/h 13.0mph /  20.9km/h 13% 0.00in /  0mm 949.00 W/m2
12:19 92.8 °F /  33.8 °C 34.7 °F /  1.5 °C 29.70in /  1005.6hPa NNE 2.9mph /  4.7km/h 6.0mph /  9.7km/h 13% 0.00in /  0mm 951.00 W/m2
12:24 93.0 °F /  33.9 °C 32.9 °F /  0.5 °C 29.70in /  1005.6hPa NNW 2.0mph /  3.2km/h 7.0mph /  11.3km/h 12% 0.00in /  0mm 954.00 W/m2
12:29 93.0 °F /  33.9 °C 34.9 °F /  1.6 °C 29.70in /  1005.6hPa East 8.9mph /  14.3km/h 10.0mph /  16.1km/h 13% 0.00in /  0mm 958.00 W/m2
12:33 93.4 °F /  34.1 °C 33.3 °F /  0.7 °C 29.70in /  1005.6hPa ENE 0.9mph /  1.4km/h 8.0mph /  12.9km/h 12% 0.00in /  0mm 962.00 W/m2
12:39 93.6 °F /  34.2 °C 33.3 °F /  0.7 °C 29.69in /  1005.3hPa Calm   4.0mph /  6.4km/h 12% 0.00in /  0mm 963.00 W/m2
12:44 93.7 °F /  34.3 °C 33.4 °F /  0.8 °C 29.69in /  1005.3hPa SSW 6.0mph /  9.7km/h 6.0mph /  9.7km/h 12% 0.00in /  0mm 956.00 W/m2
12:49 93.7 °F /  34.3 °C 35.4 °F /  1.9 °C 29.68in /  1005hPa ESE 4.9mph /  7.9km/h 5.0mph /  8km/h 13% 0.00in /  0mm 960.00 W/m2
12:54 94.1 °F /  34.5 °C 33.8 °F /  1 °C 29.68in /  1005hPa ENE 6.9mph /  11.1km/h 9.0mph /  14.5km/h 12% 0.00in /  0mm 969.00 W/m2
12:59 94.3 °F /  34.6 °C 33.8 °F /  1 °C 29.68in /  1005hPa NNE 0.9mph /  1.4km/h 6.0mph /  9.7km/h 12% 0.00in /  0mm 963.00 W/m2
13:04 94.3 °F /  34.6 °C 33.8 °F /  1 °C 29.68in /  1005hPa SW 0.9mph /  1.4km/h 3.0mph /  4.8km/h 12% 0.00in /  0mm 963.00 W/m2
13:09 94.5 °F /  34.7 °C 34.0 °F /  1.1 °C 29.68in /  1005hPa North 4.9mph /  7.9km/h 9.0mph /  14.5km/h 12% 0.00in /  0mm 963.00 W/m2
13:14 94.6 °F /  34.8 °C 34.2 °F /  1.2 °C 29.68in /  1005hPa Calm   4.0mph /  6.4km/h 12% 0.00in /  0mm 965.00 W/m2
13:18 94.8 °F /  34.9 °C 34.3 °F /  1.3 °C 29.67in /  1004.6hPa NNE 4.0mph /  6.4km/h 8.0mph /  12.9km/h 12% 0.00in /  0mm 962.00 W/m2
13:24 94.8 °F /  34.9 °C 32.2 °F /  0.1 °C 29.67in /  1004.6hPa North 4.0mph /  6.4km/h 8.0mph /  12.9km/h 11% 0.00in /  0mm 953.00 W/m2
13:29 94.6 °F /  34.8 °C 34.2 °F /  1.2 °C 29.67in /  1004.6hPa SE 6.0mph /  9.7km/h 9.0mph /  14.5km/h 12% 0.00in /  0mm 954.00 W/m2
13:34 94.6 °F /  34.8 °C 34.2 °F /  1.2 °C 29.67in /  1004.6hPa NNW 2.0mph /  3.2km/h 18.0mph /  29km/h 12% 0.00in /  0mm 951.00 W/m2
13:39 94.6 °F /  34.8 °C 34.2 °F /  1.2 °C 29.67in /  1004.6hPa NW 2.9mph /  4.7km/h 3.0mph /  4.8km/h 12% 0.00in /  0mm 946.00 W/m2
13:44 94.6 °F /  34.8 °C 32.0 °F /  0 °C 29.66in /  1004.3hPa WSW 2.9mph /  4.7km/h 9.0mph /  14.5km/h 11% 0.00in /  0mm 942.00 W/m2
13:49 94.5 °F /  34.7 °C 31.8 °F /  -0.1 °C 29.66in /  1004.3hPa East 0.9mph /  1.4km/h 4.0mph /  6.4km/h 11% 0.00in /  0mm 940.00 W/m2
13:54 94.3 °F /  34.6 °C 33.8 °F /  1 °C 29.66in /  1004.3hPa WNW 6.9mph /  11.1km/h 9.0mph /  14.5km/h 12% 0.00in /  0mm 930.00 W/m2
13:59 94.1 °F /  34.5 °C 33.8 °F /  1 °C 29.66in /  1004.3hPa North 11.0mph /  17.7km/h 11.0mph /  17.7km/h 12% 0.00in /  0mm 925.00 W/m2
14:04 94.1 °F /  34.5 °C 33.8 °F /  1 °C 29.66in /  1004.3hPa NE 4.9mph /  7.9km/h 8.0mph /  12.9km/h 12% 0.00in /  0mm 969.00 W/m2
14:09 94.1 °F /  34.5 °C 33.8 °F /  1 °C 29.65in /  1003.9hPa SSW 2.9mph /  4.7km/h 5.0mph /  8km/h 12% 0.00in /  0mm 925.00 W/m2
14:14 93.9 °F /  34.4 °C 33.6 °F /  0.9 °C 29.65in /  1003.9hPa East 0.9mph /  1.4km/h 4.0mph /  6.4km/h 12% 0.00in /  0mm 951.00 W/m2
14:19 94.3 °F /  34.6 °C 33.8 °F /  1 °C 29.65in /  1003.9hPa Calm   6.0mph /  9.7km/h 12% 0.00in /  0mm 918.00 W/m2
14:24 94.5 °F /  34.7 °C 31.8 °F /  -0.1 °C 29.65in /  1003.9hPa West 0.9mph /  1.4km/h 5.0mph /  8km/h 11% 0.00in /  0mm 960.00 W/m2
14:29 94.5 °F /  34.7 °C 36.0 °F /  2.2 °C 29.65in /  1003.9hPa SE 4.0mph /  6.4km/h 4.0mph /  6.4km/h 13% 0.00in /  0mm 970.00 W/m2
14:34 95.2 °F /  35.1 °C 32.4 °F /  0.2 °C 29.64in /  1003.6hPa SSW 0.9mph /  1.4km/h 6.0mph /  9.7km/h 11% 0.00in /  0mm 951.00 W/m2
14:39 95.2 °F /  35.1 °C 32.4 °F /  0.2 °C 29.64in /  1003.6hPa SSW 2.0mph /  3.2km/h 5.0mph /  8km/h 11% 0.00in /  0mm 911.00 W/m2
14:44 95.4 °F /  35.2 °C 32.5 °F /  0.3 °C 29.64in /  1003.6hPa Calm   4.0mph /  6.4km/h 11% 0.00in /  0mm 858.00 W/m2
14:48 95.4 °F /  35.2 °C 32.5 °F /  0.3 °C 29.64in /  1003.6hPa West 0.9mph /  1.4km/h 6.0mph /  9.7km/h 11% 0.00in /  0mm 867.00 W/m2
14:54 95.5 °F /  35.3 °C 32.7 °F /  0.4 °C 29.63in /  1003.3hPa NNW 2.0mph /  3.2km/h 5.0mph /  8km/h 11% 0.00in /  0mm 840.00 W/m2
14:59 96.1 °F /  35.6 °C 33.1 °F /  0.6 °C 29.63in /  1003.3hPa North 4.0mph /  6.4km/h 9.0mph /  14.5km/h 11% 0.00in /  0mm 823.00 W/m2
15:04 96.4 °F /  35.8 °C 33.4 °F /  0.8 °C 29.63in /  1003.3hPa Calm   8.0mph /  12.9km/h 11% 0.00in /  0mm 810.00 W/m2
15:09 96.3 °F /  35.7 °C 33.3 °F /  0.7 °C 29.63in /  1003.3hPa Calm   3.0mph /  4.8km/h 11% 0.00in /  0mm 803.00 W/m2
15:14 96.3 °F /  35.7 °C 33.3 °F /  0.7 °C 29.62in /  1002.9hPa WNW 4.0mph /  6.4km/h 7.0mph /  11.3km/h 11% 0.00in /  0mm 786.00 W/m2
15:19 96.4 °F /  35.8 °C 33.4 °F /  0.8 °C 29.62in /  1002.9hPa Calm   6.0mph /  9.7km/h 11% 0.00in /  0mm 780.00 W/m2
15:24 96.4 °F /  35.8 °C 33.4 °F /  0.8 °C 29.62in /  1002.9hPa Calm   1.0mph /  1.6km/h 11% 0.00in /  0mm 765.00 W/m2
15:29 97.0 °F /  36.1 °C 33.8 °F /  1 °C 29.61in /  1002.6hPa West 0.9mph /  1.4km/h 4.0mph /  6.4km/h 11% 0.00in /  0mm 756.00 W/m2
15:33 97.3 °F /  36.3 °C 31.6 °F /  -0.2 °C 29.61in /  1002.6hPa WNW 2.0mph /  3.2km/h 5.0mph /  8km/h 10% 0.00in /  0mm 744.00 W/m2
15:39 97.5 °F /  36.4 °C 31.8 °F /  -0.1 °C 29.61in /  1002.6hPa SW 2.9mph /  4.7km/h 11.0mph /  17.7km/h 10% 0.00in /  0mm 740.00 W/m2
15:44 96.4 °F /  35.8 °C 30.9 °F /  -0.6 °C 29.61in /  1002.6hPa SSW 6.0mph /  9.7km/h 8.0mph /  12.9km/h 10% 0.00in /  0mm 169.00 W/m2
15:49 94.8 °F /  34.9 °C 32.2 °F /  0.1 °C 29.61in /  1002.6hPa South 6.0mph /  9.7km/h 7.0mph /  11.3km/h 11% 0.00in /  0mm 84.00 W/m2
15:54 93.7 °F /  34.3 °C 31.3 °F /  -0.4 °C 29.61in /  1002.6hPa SSW 0.9mph /  1.4km/h 5.0mph /  8km/h 11% 0.00in /  0mm 105.00 W/m2
15:59 93.2 °F /  34 °C 33.1 °F /  0.6 °C 29.61in /  1002.6hPa WSW 0.9mph /  1.4km/h 5.0mph /  8km/h 12% 0.00in /  0mm 192.00 W/m2
16:04 92.8 °F /  33.8 °C 30.6 °F /  -0.8 °C 29.61in /  1002.6hPa NNW 2.9mph /  4.7km/h 6.0mph /  9.7km/h 11% 0.00in /  0mm 104.00 W/m2
16:09 92.5 °F /  33.6 °C 32.5 °F /  0.3 °C 29.61in /  1002.6hPa North 0.9mph /  1.4km/h 4.0mph /  6.4km/h 12% 0.00in /  0mm 97.00 W/m2
16:14 91.9 °F /  33.3 °C 32.0 °F /  0 °C 29.61in /  1002.6hPa Calm   3.0mph /  4.8km/h 12% 0.00in /  0mm 111.00 W/m2
16:19 91.8 °F /  33.2 °C 32.0 °F /  0 °C 29.60in /  1002.3hPa SE 4.9mph /  7.9km/h 5.0mph /  8km/h 12% 0.00in /  0mm 613.00 W/m2
16:24 92.1 °F /  33.4 °C 32.2 °F /  0.1 °C 29.60in /  1002.3hPa ENE 2.9mph /  4.7km/h 7.0mph /  11.3km/h 12% 0.00in /  0mm 633.00 W/m2
16:29 92.7 °F /  33.7 °C 32.7 °F /  0.4 °C 29.60in /  1002.3hPa ENE 0.9mph /  1.4km/h 4.0mph /  6.4km/h 12% 0.00in /  0mm 589.00 W/m2
16:34 93.4 °F /  34.1 °C 31.1 °F /  -0.5 °C 29.60in /  1002.3hPa West 4.9mph /  7.9km/h 6.0mph /  9.7km/h 11% 0.00in /  0mm 571.00 W/m2
16:39 93.7 °F /  34.3 °C 31.3 °F /  -0.4 °C 29.60in /  1002.3hPa SSE 4.9mph /  7.9km/h 6.0mph /  9.7km/h 11% 0.00in /  0mm 550.00 W/m2
16:44 94.5 °F /  34.7 °C 31.8 °F /  -0.1 °C 29.60in /  1002.3hPa South 0.9mph /  1.4km/h 2.0mph /  3.2km/h 11% 0.00in /  0mm 527.00 W/m2
16:49 95.2 °F /  35.1 °C 32.4 °F /  0.2 °C 29.59in /  1001.9hPa SE 2.0mph /  3.2km/h 4.0mph /  6.4km/h 11% 0.00in /  0mm 142.00 W/m2
16:54 95.4 °F /  35.2 °C 30.2 °F /  -1 °C 29.59in /  1001.9hPa SE 0.9mph /  1.4km/h 3.0mph /  4.8km/h 10% 0.00in /  0mm 494.00 W/m2
16:59 95.5 °F /  35.3 °C 32.7 °F /  0.4 °C 29.59in /  1001.9hPa WSW 0.9mph /  1.4km/h 5.0mph /  8km/h 11% 0.00in /  0mm 476.00 W/m2
17:03 95.7 °F /  35.4 °C 32.9 °F /  0.5 °C 29.59in /  1001.9hPa Calm   2.0mph /  3.2km/h 11% 0.00in /  0mm 469.00 W/m2
17:09 95.7 °F /  35.4 °C 30.4 °F /  -0.9 °C 29.59in /  1001.9hPa North 2.9mph /  4.7km/h 5.0mph /  8km/h 10% 0.00in /  0mm 446.00 W/m2
17:14 96.3 °F /  35.7 °C 30.9 °F /  -0.6 °C 29.59in /  1001.9hPa West 2.0mph /  3.2km/h 6.0mph /  9.7km/h 10% 0.00in /  0mm 427.00 W/m2
17:19 96.4 °F /  35.8 °C 30.9 °F /  -0.6 °C 29.59in /  1001.9hPa WSW 4.0mph /  6.4km/h 5.0mph /  8km/h 10% 0.00in /  0mm 406.00 W/m2
17:24 97.0 °F /  36.1 °C 31.5 °F /  -0.3 °C 29.59in /  1001.9hPa Calm   2.0mph /  3.2km/h 10% 0.00in /  0mm 385.00 W/m2
17:29 97.5 °F /  36.4 °C 31.8 °F /  -0.1 °C 29.59in /  1001.9hPa WSW 4.9mph /  7.9km/h 9.0mph /  14.5km/h 10% 0.00in /  0mm 359.00 W/m2
17:34 97.2 °F /  36.2 °C 31.5 °F /  -0.3 °C 29.59in /  1001.9hPa SW 2.0mph /  3.2km/h 2.0mph /  3.2km/h 10% 0.00in /  0mm 345.00 W/m2
17:39 96.6 °F /  35.9 °C 33.4 °F /  0.8 °C 29.59in /  1001.9hPa West 4.9mph /  7.9km/h 6.0mph /  9.7km/h 11% 0.00in /  0mm 332.00 W/m2
17:44 96.4 °F /  35.8 °C 30.9 °F /  -0.6 °C 29.59in /  1001.9hPa West 6.0mph /  9.7km/h 6.0mph /  9.7km/h 10% 0.00in /  0mm 309.00 W/m2
17:48 95.9 °F /  35.5 °C 32.9 °F /  0.5 °C 29.59in /  1001.9hPa West 6.0mph /  9.7km/h 10.0mph /  16.1km/h 11% 0.00in /  0mm 288.00 W/m2
17:54 95.5 °F /  35.3 °C 32.7 °F /  0.4 °C 29.59in /  1001.9hPa NNW 6.0mph /  9.7km/h 6.0mph /  9.7km/h 11% 0.00in /  0mm 79.00 W/m2
17:59 95.2 °F /  35.1 °C 32.4 °F /  0.2 °C 29.60in /  1002.3hPa NNW 0.9mph /  1.4km/h 3.0mph /  4.8km/h 11% 0.00in /  0mm 79.00 W/m2
18:04 94.8 °F /  34.9 °C 32.2 °F /  0.1 °C 29.60in /  1002.3hPa WSW 2.9mph /  4.7km/h 5.0mph /  8km/h 11% 0.00in /  0mm 200.00 W/m2
18:09 94.8 °F /  34.9 °C 32.2 °F /  0.1 °C 29.59in /  1001.9hPa NNW 0.9mph /  1.4km/h 4.0mph /  6.4km/h 11% 0.00in /  0mm 149.00 W/m2
18:14 94.8 °F /  34.9 °C 32.2 °F /  0.1 °C 29.60in /  1002.3hPa Calm   1.0mph /  1.6km/h 11% 0.00in /  0mm 113.00 W/m2
18:19 94.6 °F /  34.8 °C 32.0 °F /  0 °C 29.60in /  1002.3hPa Calm   1.0mph /  1.6km/h 11% 0.00in /  0mm 49.00 W/m2
18:24 94.3 °F /  34.6 °C 31.6 °F /  -0.2 °C 29.60in /  1002.3hPa Calm   1.0mph /  1.6km/h 11% 0.00in /  0mm 56.00 W/m2
18:29 93.9 °F /  34.4 °C 33.6 °F /  0.9 °C 29.60in /  1002.3hPa Calm   1.0mph /  1.6km/h 12% 0.00in /  0mm 72.00 W/m2
18:34 93.6 °F /  34.2 °C 33.3 °F /  0.7 °C 29.60in /  1002.3hPa West 0.9mph /  1.4km/h 2.0mph /  3.2km/h 12% 0.00in /  0mm 49.00 W/m2
18:39 93.2 °F /  34 °C 33.1 °F /  0.6 °C 29.60in /  1002.3hPa Calm   1.0mph /  1.6km/h 12% 0.00in /  0mm 28.00 W/m2
18:44 92.8 °F /  33.8 °C 32.7 °F /  0.4 °C 29.60in /  1002.3hPa Calm   1.0mph /  1.6km/h 12% 0.00in /  0mm 28.00 W/m2
18:49 92.3 °F /  33.5 °C 32.4 °F /  0.2 °C 29.60in /  1002.3hPa West 2.0mph /  3.2km/h 2.0mph /  3.2km/h 12% 0.00in /  0mm 21.00 W/m2
18:54 91.8 °F /  33.2 °C 34.0 °F /  1.1 °C 29.60in /  1002.3hPa Calm     13% 0.00in /  0mm 12.00 W/m2
18:59 91.2 °F /  32.9 °C 33.4 °F /  0.8 °C 29.61in /  1002.6hPa Calm   1.0mph /  1.6km/h 13% 0.00in /  0mm 7.00 W/m2
19:04 90.7 °F /  32.6 °C 34.9 °F /  1.6 °C 29.60in /  1002.3hPa Calm     14% 0.00in /  0mm 0.00 W/m2
19:09 90.1 °F /  32.3 °C 34.5 °F /  1.4 °C 29.61in /  1002.6hPa Calm     14% 0.00in /  0mm 0.00 W/m2
19:14 89.6 °F /  32 °C 34.2 °F /  1.2 °C 29.61in /  1002.6hPa Calm     14% 0.00in /  0mm 0.00 W/m2
19:19 89.1 °F /  31.7 °C 33.6 °F /  0.9 °C 29.61in /  1002.6hPa Calm     14% 0.00in /  0mm 0.00 W/m2
19:23 88.5 °F /  31.4 °C 33.3 °F /  0.7 °C 29.61in /  1002.6hPa Calm     14% 0.00in /  0mm 0.00 W/m2
19:29 88.0 °F /  31.1 °C 34.5 °F /  1.4 °C 29.61in /  1002.6hPa Calm     15% 0.00in /  0mm 0.00 W/m2
19:34 87.3 °F /  30.7 °C 34.0 °F /  1.1 °C 29.62in /  1002.9hPa Calm     15% 0.00in /  0mm 0.00 W/m2
19:39 86.7 °F /  30.4 °C 35.2 °F /  1.8 °C 29.62in /  1002.9hPa Calm     16% 0.00in /  0mm 0.00 W/m2
19:44 86.0 °F /  30 °C 34.5 °F /  1.4 °C 29.62in /  1002.9hPa Calm     16% 0.00in /  0mm 0.00 W/m2
19:49 85.5 °F /  29.7 °C 34.2 °F /  1.2 °C 29.62in /  1002.9hPa Calm     16% 0.00in /  0mm 0.00 W/m2
19:54 84.7 °F /  29.3 °C 35.1 °F /  1.7 °C 29.63in /  1003.3hPa NNE 2.9mph /  4.7km/h 3.0mph /  4.8km/h 17% 0.00in /  0mm 0.00 W/m2
19:59 84.2 °F /  29 °C 33.1 °F /  0.6 °C 29.63in /  1003.3hPa South 2.0mph /  3.2km/h 7.0mph /  11.3km/h 16% 0.00in /  0mm 0.00 W/m2
20:04 84.0 °F /  28.9 °C 29.7 °F /  -1.3 °C 29.63in /  1003.3hPa SSW 0.9mph /  1.4km/h 5.0mph /  8km/h 14% 0.00in /  0mm 0.00 W/m2
20:09 84.0 °F /  28.9 °C 29.7 °F /  -1.3 °C 29.64in /  1003.6hPa SSW 4.0mph /  6.4km/h 6.0mph /  9.7km/h 14% 0.00in /  0mm 0.00 W/m2
20:14 84.0 °F /  28.9 °C 29.7 °F /  -1.3 °C 29.64in /  1003.6hPa SSW 4.9mph /  7.9km/h 5.0mph /  8km/h 14% 0.00in /  0mm 0.00 W/m2
Olympia, Windhoek, Namibia
Compliments of Weather Underground - 3.25 mb